createdAt,value
2023-12-03T00:01:00.269Z,2.87
2023-12-03T00:03:29.051Z,2.53
2023-12-03T00:05:57.852Z,3.13
2023-12-03T00:08:37.924Z,2.33
2023-12-03T00:10:56.819Z,5.10
2023-12-03T00:13:25.279Z,8.53
2023-12-03T00:15:53.879Z,7.17
2023-12-03T00:18:21.864Z,7.30
2023-12-03T00:20:50.461Z,7.10
2023-12-03T00:23:19.282Z,6.77
2023-12-03T00:25:47.753Z,5.37
2023-12-03T00:28:16.336Z,5.83
2023-12-03T00:30:44.910Z,5.67
2023-12-03T00:33:13.595Z,4.97
2023-12-03T00:35:41.605Z,7.13
2023-12-03T00:38:09.590Z,7.03
2023-12-03T00:40:39.133Z,5.50
2023-12-03T00:43:07.486Z,5.23
2023-12-03T00:45:35.950Z,4.83
2023-12-03T00:48:04.597Z,3.80
2023-12-03T00:50:32.528Z,4.63
2023-12-03T00:53:01.075Z,4.70
2023-12-03T00:55:29.560Z,3.50
2023-12-03T00:57:57.924Z,4.07
2023-12-03T01:00:26.428Z,3.20
2023-12-03T01:02:54.364Z,3.50
2023-12-03T01:05:22.420Z,3.23
2023-12-03T01:07:51.019Z,3.63
2023-12-03T01:10:19.484Z,3.87
2023-12-03T01:12:47.609Z,4.40
2023-12-03T01:15:16.278Z,3.83
2023-12-03T01:17:44.994Z,3.17
2023-12-03T01:20:13.123Z,3.50
2023-12-03T01:22:41.701Z,3.33
2023-12-03T01:25:10.502Z,5.23
2023-12-03T01:27:39.183Z,4.80
2023-12-03T01:30:08.509Z,2.97
2023-12-03T01:32:37.192Z,3.83
2023-12-03T01:35:06.404Z,4.40
2023-12-03T01:37:34.531Z,3.97
2023-12-03T01:40:03.528Z,4.03
2023-12-03T01:42:32.260Z,3.17
2023-12-03T01:45:00.224Z,3.73
2023-12-03T01:47:28.898Z,2.93
2023-12-03T01:49:57.344Z,2.60
2023-12-03T01:52:25.943Z,3.00
2023-12-03T01:54:54.477Z,2.70
2023-12-03T01:57:23.144Z,3.87
2023-12-03T02:02:21.121Z,1.80
2023-12-03T02:04:49.825Z,1.90
2023-12-03T02:07:18.226Z,2.13
2023-12-03T02:09:46.718Z,1.97
2023-12-03T02:12:14.918Z,2.63
2023-12-03T02:14:42.904Z,2.10
2023-12-03T02:17:11.243Z,2.00
2023-12-03T02:19:39.939Z,2.70
2023-12-03T02:22:07.869Z,2.57
2023-12-03T02:24:35.769Z,2.80
2023-12-03T02:27:03.746Z,2.70
2023-12-03T02:29:32.233Z,2.63
2023-12-03T02:32:00.844Z,4.43
2023-12-03T02:34:29.553Z,3.37
2023-12-03T02:36:58.094Z,3.13
2023-12-03T02:39:26.349Z,4.13
2023-12-03T02:41:54.746Z,3.60
2023-12-03T02:44:22.726Z,3.17
2023-12-03T02:46:51.184Z,2.90
2023-12-03T02:49:19.849Z,3.70
2023-12-03T02:51:48.768Z,3.23
2023-12-03T02:54:16.875Z,3.30
2023-12-03T02:56:46.961Z,2.77
2023-12-03T02:59:14.984Z,4.13
2023-12-03T03:01:43.249Z,2.60
2023-12-03T03:04:12.095Z,2.53
2023-12-03T03:06:40.808Z,3.37
2023-12-03T03:09:08.893Z,3.40
2023-12-03T03:11:37.369Z,2.43
2023-12-03T03:14:05.800Z,3.13
2023-12-03T03:16:34.295Z,3.30
2023-12-03T03:19:02.841Z,3.73
2023-12-03T03:21:31.268Z,4.53
2023-12-03T03:23:59.725Z,4.40
2023-12-03T03:26:27.680Z,3.27
2023-12-03T03:28:56.194Z,4.00
2023-12-03T03:31:24.720Z,3.80
2023-12-03T03:33:53.234Z,3.57
2023-12-03T03:36:22.097Z,3.90
2023-12-03T03:38:50.331Z,4.33
2023-12-03T03:41:18.303Z,3.60
2023-12-03T03:43:47.299Z,3.50
2023-12-03T03:46:15.890Z,2.63
2023-12-03T03:48:43.948Z,3.00
2023-12-03T03:51:12.668Z,4.00
2023-12-03T03:53:40.531Z,3.10
2023-12-03T03:56:10.021Z,2.40
2023-12-03T03:58:39.178Z,2.40
2023-12-03T04:01:09.347Z,2.63
2023-12-03T04:03:38.216Z,4.57
2023-12-03T04:06:06.911Z,3.60
2023-12-03T04:08:35.305Z,4.13
2023-12-03T04:11:04.630Z,3.13
2023-12-03T04:13:32.861Z,2.47
2023-12-03T04:16:00.825Z,3.47
2023-12-03T04:18:29.476Z,2.83
2023-12-03T04:20:57.981Z,3.80
2023-12-03T04:23:26.557Z,2.87
2023-12-03T04:25:54.609Z,3.10
2023-12-03T04:28:22.553Z,3.13
2023-12-03T04:30:50.582Z,3.10
2023-12-03T04:33:19.087Z,3.10
2023-12-03T04:35:47.443Z,4.43
2023-12-03T04:38:16.154Z,2.93
2023-12-03T04:40:44.560Z,2.67
2023-12-03T04:43:13.113Z,2.53
2023-12-03T04:45:41.617Z,2.07
2023-12-03T04:48:10.385Z,1.93
2023-12-03T04:50:38.857Z,2.53
2023-12-03T04:53:07.226Z,3.30
2023-12-03T04:55:35.689Z,2.47
2023-12-03T04:58:04.406Z,2.07
2023-12-03T05:00:32.921Z,2.17
2023-12-03T05:03:01.381Z,2.30
2023-12-03T05:05:29.841Z,2.50
2023-12-03T05:07:58.456Z,1.67
2023-12-03T05:10:26.511Z,1.80
2023-12-03T05:12:55.044Z,2.27
2023-12-03T05:15:23.632Z,2.43
2023-12-03T05:17:52.188Z,1.03
2023-12-03T05:20:21.015Z,2.07
2023-12-03T05:22:49.517Z,2.10
2023-12-03T05:25:17.507Z,1.57
2023-12-03T05:27:46.168Z,1.80
2023-12-03T05:30:15.149Z,1.83
2023-12-03T05:32:45.186Z,2.40
2023-12-03T05:35:13.877Z,2.03
2023-12-03T05:37:42.285Z,2.47
2023-12-03T05:40:11.563Z,3.80
2023-12-03T05:42:40.157Z,2.77
2023-12-03T05:45:09.569Z,3.43
2023-12-03T05:47:39.692Z,3.67
2023-12-03T05:50:08.536Z,2.90
2023-12-03T05:52:37.249Z,2.40
2023-12-03T05:55:06.443Z,3.53
2023-12-03T05:57:34.401Z,3.83
2023-12-03T06:00:02.807Z,3.77
2023-12-03T06:02:31.339Z,4.23
2023-12-03T06:04:59.737Z,6.07
2023-12-03T06:07:27.971Z,4.73
2023-12-03T06:09:55.917Z,5.63
2023-12-03T06:12:24.659Z,6.70
2023-12-03T06:14:53.159Z,6.60
2023-12-03T06:17:21.052Z,6.43
2023-12-03T06:19:49.223Z,5.63
2023-12-03T06:22:17.727Z,4.63
2023-12-03T06:24:46.435Z,4.57
2023-12-03T06:27:14.490Z,3.60
2023-12-03T06:29:42.428Z,3.67
2023-12-03T06:32:10.984Z,3.50
2023-12-03T06:34:39.316Z,3.30
2023-12-03T06:37:09.605Z,3.77
2023-12-03T06:39:38.208Z,3.07
2023-12-03T06:42:07.814Z,3.17
2023-12-03T06:44:44.105Z,2.57
2023-12-03T06:47:07.011Z,2.87
2023-12-03T06:52:02.750Z,2.80
2023-12-03T06:54:31.483Z,2.80
2023-12-03T06:56:59.694Z,3.03
2023-12-03T06:59:27.657Z,2.77
2023-12-03T07:01:55.610Z,4.57
2023-12-03T07:04:24.266Z,4.33
2023-12-03T07:06:52.574Z,4.20
2023-12-03T07:09:37.314Z,4.23
2023-12-03T07:11:52.881Z,4.10
2023-12-03T07:14:21.445Z,5.03
2023-12-03T07:16:50.123Z,5.23
2023-12-03T07:19:18.181Z,4.80
2023-12-03T07:21:46.142Z,4.60
2023-12-03T07:24:14.214Z,3.50
2023-12-03T07:26:44.256Z,3.73
2023-12-03T07:29:12.545Z,3.60
2023-12-03T07:31:41.020Z,3.50
2023-12-03T07:34:09.623Z,3.67
2023-12-03T07:36:38.378Z,3.70
2023-12-03T07:39:07.214Z,3.90
2023-12-03T07:41:35.649Z,3.97
2023-12-03T07:44:04.477Z,3.97
2023-12-03T07:46:34.666Z,4.67
2023-12-03T07:49:03.388Z,5.07
2023-12-03T07:51:32.276Z,4.37
2023-12-03T07:54:00.840Z,7.33
2023-12-03T07:56:38.865Z,4.33
2023-12-03T07:59:07.665Z,5.30
2023-12-03T08:01:36.141Z,5.60
2023-12-03T08:04:07.043Z,5.57
2023-12-03T08:06:35.943Z,6.27
2023-12-03T08:09:04.769Z,8.13
2023-12-03T08:11:33.918Z,8.10
2023-12-03T08:14:02.604Z,7.63
2023-12-03T08:16:31.464Z,7.67
2023-12-03T08:19:00.777Z,8.83
2023-12-03T08:21:29.465Z,7.90
2023-12-03T08:23:59.753Z,8.97
2023-12-03T08:26:28.313Z,8.80
2023-12-03T08:28:56.666Z,9.30
2023-12-03T08:31:25.570Z,8.53
2023-12-03T08:33:54.329Z,8.70
2023-12-03T08:36:23.341Z,10.27
2023-12-03T08:38:52.191Z,10.07
2023-12-03T08:41:20.948Z,10.53
2023-12-03T08:43:50.108Z,9.63
2023-12-03T08:46:18.065Z,9.23
2023-12-03T08:48:47.575Z,9.57
2023-12-03T08:53:44.967Z,9.98
2023-12-03T08:56:15.042Z,9.43
2023-12-03T08:58:43.886Z,8.67
2023-12-03T09:01:12.978Z,10.47
2023-12-03T09:03:42.415Z,9.10
2023-12-03T09:06:11.268Z,9.90
2023-12-03T09:08:42.881Z,8.67
2023-12-03T09:11:10.305Z,9.43
2023-12-03T09:13:39.077Z,9.13
2023-12-03T09:16:08.060Z,11.40
2023-12-03T09:18:41.055Z,11.10
2023-12-03T09:21:13.241Z,11.10
2023-12-03T09:23:42.304Z,10.90
2023-12-03T09:28:40.391Z,8.53
2023-12-03T09:31:09.394Z,10.13
2023-12-03T09:33:38.732Z,9.33
2023-12-03T09:36:07.915Z,9.07
2023-12-03T09:38:39.604Z,10.67
2023-12-03T09:41:09.733Z,10.23
2023-12-03T09:43:39.777Z,11.17
2023-12-03T09:46:10.097Z,10.70
2023-12-03T09:48:40.440Z,12.23
2023-12-03T09:51:10.260Z,10.80
2023-12-03T09:56:07.523Z,11.55
2023-12-03T09:58:35.935Z,11.00
2023-12-03T10:01:04.693Z,11.50
2023-12-03T10:03:33.962Z,11.10
2023-12-03T10:06:02.573Z,10.53
2023-12-03T10:08:31.949Z,10.53
2023-12-03T10:11:02.732Z,9.47
2023-12-03T10:13:33.340Z,11.03
2023-12-03T10:16:01.894Z,10.40
2023-12-03T10:18:30.483Z,12.97
2023-12-03T10:21:09.030Z,11.63
2023-12-03T10:23:38.007Z,11.03
2023-12-03T10:26:11.072Z,10.63
2023-12-03T10:28:40.999Z,10.87
2023-12-03T10:31:17.521Z,10.60
2023-12-03T10:33:46.577Z,10.50
2023-12-03T10:36:16.061Z,10.30
2023-12-03T10:38:45.826Z,12.10
2023-12-03T10:41:16.033Z,10.90
2023-12-03T10:43:45.037Z,11.97
2023-12-03T10:46:13.567Z,10.50
2023-12-03T10:48:42.879Z,10.40
2023-12-03T10:51:12.281Z,10.83
2023-12-03T10:53:40.677Z,10.07
2023-12-03T10:56:10.049Z,11.47
2023-12-03T10:58:43.190Z,10.50
2023-12-03T11:01:25.026Z,10.03
2023-12-03T11:03:57.887Z,9.20
2023-12-03T11:06:27.056Z,9.33
2023-12-03T11:08:56.607Z,8.97
2023-12-03T11:11:24.623Z,8.87
2023-12-03T11:13:53.823Z,9.90
2023-12-03T11:16:22.930Z,9.20
2023-12-03T11:19:11.253Z,8.83
2023-12-03T11:21:50.140Z,9.93
2023-12-03T11:24:38.479Z,9.13
2023-12-03T11:27:08.947Z,9.03
2023-12-03T11:29:52.610Z,9.60
2023-12-03T11:32:25.055Z,7.93
2023-12-03T11:34:53.758Z,7.17
2023-12-03T11:37:24.458Z,7.80
2023-12-03T11:39:53.613Z,8.97
2023-12-03T11:42:24.259Z,7.67
2023-12-03T11:44:53.029Z,8.40
2023-12-03T11:47:21.517Z,7.87
2023-12-03T11:49:50.188Z,8.17
2023-12-03T11:52:19.187Z,7.30
2023-12-03T11:54:49.081Z,7.70
2023-12-03T11:57:18.157Z,8.87
2023-12-03T11:59:47.069Z,8.47
2023-12-03T12:02:15.282Z,8.83
2023-12-03T12:04:44.056Z,9.47
2023-12-03T12:07:16.694Z,7.70
2023-12-03T12:09:45.668Z,9.57
2023-12-03T12:12:14.385Z,9.40
2023-12-03T12:14:43.712Z,7.77
2023-12-03T12:17:12.486Z,8.67
2023-12-03T12:19:47.728Z,9.03
2023-12-03T12:22:16.336Z,7.83
2023-12-03T12:24:46.546Z,7.53
2023-12-03T12:27:15.309Z,7.90
2023-12-03T12:29:44.759Z,8.17
2023-12-03T12:32:12.744Z,9.67
2023-12-03T12:34:40.871Z,8.30
2023-12-03T12:37:09.790Z,8.33
2023-12-03T12:39:38.633Z,8.03
2023-12-03T12:42:08.360Z,7.90
2023-12-03T12:44:47.038Z,8.70
2023-12-03T12:47:14.373Z,9.03
2023-12-03T12:49:46.326Z,8.83
2023-12-03T12:52:16.869Z,10.03
2023-12-03T12:54:46.636Z,8.47
2023-12-03T12:59:43.146Z,8.68
2023-12-03T13:02:13.232Z,10.20
2023-12-03T13:04:41.829Z,8.73
2023-12-03T13:07:10.306Z,9.50
2023-12-03T13:09:45.243Z,10.23
2023-12-03T13:12:17.980Z,10.63
2023-12-03T13:14:47.967Z,10.20
2023-12-03T13:17:17.040Z,8.00
2023-12-03T13:19:45.767Z,10.50
2023-12-03T13:22:15.203Z,11.30
2023-12-03T13:24:43.953Z,9.87
2023-12-03T13:27:12.125Z,11.60
2023-12-03T13:29:40.746Z,10.80
2023-12-03T13:32:09.723Z,10.03
2023-12-03T13:34:38.676Z,9.63
2023-12-03T13:37:08.776Z,9.20
2023-12-03T13:39:37.448Z,9.53
2023-12-03T13:42:06.060Z,9.27
2023-12-03T13:44:34.747Z,10.43
2023-12-03T13:47:03.830Z,10.60
2023-12-03T13:49:36.782Z,10.50
2023-12-03T13:52:05.469Z,9.40
2023-12-03T13:54:33.904Z,11.13
2023-12-03T13:57:01.745Z,10.13
2023-12-03T13:59:30.464Z,9.73
2023-12-03T14:01:58.342Z,9.77
2023-12-03T14:04:27.051Z,11.10
2023-12-03T14:06:58.022Z,8.93
2023-12-03T14:09:26.855Z,9.87
2023-12-03T14:11:55.509Z,10.13
2023-12-03T14:14:23.983Z,9.07
2023-12-03T14:16:56.674Z,10.73
2023-12-03T14:19:25.722Z,9.33
2023-12-03T14:21:54.044Z,8.40
2023-12-03T14:24:23.498Z,9.83
2023-12-03T14:26:52.360Z,9.30
2023-12-03T14:29:21.002Z,8.87
2023-12-03T14:31:49.481Z,9.17
2023-12-03T14:34:18.635Z,8.87
2023-12-03T14:36:47.384Z,9.23
2023-12-03T14:39:17.609Z,10.17
2023-12-03T14:41:46.052Z,9.67
2023-12-03T14:44:14.688Z,9.47
2023-12-03T14:46:43.226Z,8.37
2023-12-03T14:49:11.407Z,9.50
2023-12-03T14:51:40.074Z,8.90
2023-12-03T14:54:08.592Z,8.63
2023-12-03T14:56:36.552Z,9.40
2023-12-03T14:59:06.582Z,7.57
2023-12-03T15:01:36.034Z,8.63
2023-12-03T15:04:04.619Z,7.73
2023-12-03T15:06:33.039Z,7.87
2023-12-03T15:09:01.208Z,7.40
2023-12-03T15:11:29.731Z,7.87
2023-12-03T15:13:58.388Z,8.40
2023-12-03T15:16:28.308Z,8.47
2023-12-03T15:21:24.331Z,7.22
2023-12-03T15:23:53.045Z,7.67
2023-12-03T15:26:21.625Z,6.90
2023-12-03T15:28:49.775Z,7.07
2023-12-03T15:31:19.278Z,6.57
2023-12-03T15:33:47.965Z,6.40
2023-12-03T15:36:17.201Z,7.13
2023-12-03T15:38:45.644Z,6.60
2023-12-03T15:41:15.198Z,6.07
2023-12-03T15:43:47.509Z,6.60
2023-12-03T15:46:14.323Z,6.27
2023-12-03T15:48:43.522Z,6.40
2023-12-03T15:51:12.372Z,5.60
2023-12-03T15:53:41.157Z,4.87
2023-12-03T15:56:10.635Z,5.70
2023-12-03T15:58:39.259Z,5.33
2023-12-03T16:01:09.571Z,4.50
2023-12-03T16:03:40.287Z,4.80
2023-12-03T16:06:09.045Z,4.87
2023-12-03T16:08:37.676Z,4.87
2023-12-03T16:11:06.164Z,5.33
2023-12-03T16:13:35.557Z,5.93
2023-12-03T16:16:06.205Z,6.00
2023-12-03T16:18:34.554Z,5.27
2023-12-03T16:21:03.352Z,5.83
2023-12-03T16:23:31.828Z,5.77
2023-12-03T16:26:00.378Z,5.40
2023-12-03T16:28:29.046Z,5.67
2023-12-03T16:30:57.211Z,6.50
2023-12-03T16:33:25.304Z,6.17
2023-12-03T16:35:53.870Z,5.57
2023-12-03T16:38:23.782Z,5.30
2023-12-03T16:43:19.306Z,5.12
2023-12-03T16:45:47.393Z,5.57
2023-12-03T16:48:16.104Z,5.17
2023-12-03T16:50:44.173Z,5.40
2023-12-03T16:53:12.484Z,6.10
2023-12-03T16:55:41.417Z,6.07
2023-12-03T16:58:09.421Z,5.23
2023-12-03T17:00:38.078Z,6.03
2023-12-03T17:03:06.336Z,6.90
2023-12-03T17:05:35.862Z,5.57
2023-12-03T17:08:05.636Z,6.43
2023-12-03T17:10:35.970Z,6.43
2023-12-03T17:13:04.741Z,5.70
2023-12-03T17:15:33.958Z,6.30
2023-12-03T17:20:31.028Z,5.72
2023-12-03T17:23:00.452Z,5.07
2023-12-03T17:25:29.425Z,6.20
2023-12-03T17:27:59.742Z,4.87
2023-12-03T17:30:28.231Z,4.97
2023-12-03T17:32:56.863Z,5.00
2023-12-03T17:35:25.625Z,5.77
2023-12-03T17:37:54.690Z,6.20
2023-12-03T17:40:25.013Z,6.03
2023-12-03T17:42:53.930Z,5.50
2023-12-03T17:45:24.258Z,6.40
2023-12-03T17:47:53.243Z,6.50
2023-12-03T17:50:22.480Z,6.87
2023-12-03T17:52:51.216Z,6.03
2023-12-03T17:55:20.987Z,4.50
2023-12-03T17:57:49.746Z,6.63
2023-12-03T18:00:18.985Z,7.07
2023-12-03T18:02:47.265Z,6.67
2023-12-03T18:05:15.943Z,6.67
2023-12-03T18:07:44.771Z,6.13
2023-12-03T18:10:14.991Z,6.30
2023-12-03T18:12:43.717Z,6.80
2023-12-03T18:15:12.354Z,7.33
2023-12-03T18:17:41.083Z,6.97
2023-12-03T18:20:10.483Z,7.23
2023-12-03T18:22:39.151Z,6.37
2023-12-03T18:25:07.691Z,6.40
2023-12-03T18:27:35.821Z,6.70
2023-12-03T18:30:04.900Z,7.33
2023-12-03T18:32:33.775Z,7.93
2023-12-03T18:35:02.276Z,7.23
2023-12-03T18:37:30.931Z,7.20
2023-12-03T18:40:00.067Z,7.43
2023-12-03T18:42:28.878Z,7.00
2023-12-03T18:44:58.043Z,7.77
2023-12-03T18:47:26.760Z,6.20
2023-12-03T18:49:55.813Z,7.17
2023-12-03T18:52:24.187Z,7.90
2023-12-03T18:54:53.096Z,5.87
2023-12-03T18:57:21.753Z,7.30
2023-12-03T18:59:51.420Z,6.63
2023-12-03T19:02:20.371Z,7.30
2023-12-03T19:04:48.896Z,7.30
2023-12-03T19:07:17.638Z,7.40
2023-12-03T19:09:46.809Z,7.13
2023-12-03T19:12:15.613Z,7.20
2023-12-03T19:14:43.698Z,6.63
2023-12-03T19:17:12.664Z,7.20
2023-12-03T19:19:41.211Z,6.27
2023-12-03T19:22:09.385Z,6.60
2023-12-03T19:24:39.353Z,6.37
2023-12-03T19:27:08.173Z,6.80
2023-12-03T19:29:38.771Z,6.50
2023-12-03T19:32:08.287Z,6.33
2023-12-03T19:34:37.415Z,5.67
2023-12-03T19:37:06.453Z,6.27
2023-12-03T19:39:35.211Z,6.63
2023-12-03T19:42:06.322Z,6.80
2023-12-03T19:44:37.420Z,6.03
2023-12-03T19:47:06.652Z,6.43
2023-12-03T19:49:35.845Z,6.70
2023-12-03T19:52:04.346Z,5.13
2023-12-03T19:54:34.085Z,5.43
2023-12-03T19:57:03.065Z,5.97
2023-12-03T19:59:34.807Z,6.77
2023-12-03T20:02:03.073Z,5.57
2023-12-03T20:04:32.271Z,5.73
2023-12-03T20:07:01.333Z,5.60
2023-12-03T20:09:32.391Z,5.40
2023-12-03T20:12:01.657Z,5.33
2023-12-03T20:14:30.931Z,5.67
2023-12-03T20:16:59.870Z,5.37
2023-12-03T20:19:28.599Z,6.63
2023-12-03T20:21:57.443Z,6.27
2023-12-03T20:24:26.305Z,5.90
2023-12-03T20:26:55.005Z,6.37
2023-12-03T20:29:28.499Z,5.83
2023-12-03T20:31:57.426Z,6.87
2023-12-03T20:34:28.117Z,5.87
2023-12-03T20:36:56.669Z,5.47
2023-12-03T20:39:27.443Z,5.53
2023-12-03T20:41:56.545Z,4.93
2023-12-03T20:44:24.662Z,4.87
2023-12-03T20:46:53.226Z,4.93
2023-12-03T20:49:21.970Z,4.40
2023-12-03T20:51:51.458Z,5.00
2023-12-03T20:54:21.472Z,4.27
2023-12-03T20:59:21.474Z,4.37
2023-12-03T21:01:50.716Z,4.90
2023-12-03T21:04:19.448Z,4.93
2023-12-03T21:06:47.978Z,4.87
2023-12-03T21:09:17.473Z,4.73
2023-12-03T21:11:47.200Z,4.67
2023-12-03T21:14:16.015Z,5.60
2023-12-03T21:16:45.523Z,5.73
2023-12-03T21:19:15.276Z,5.43
2023-12-03T21:21:44.026Z,4.47
2023-12-03T21:24:15.393Z,4.73
2023-12-03T21:26:43.991Z,4.70
2023-12-03T21:29:12.586Z,5.17
2023-12-03T21:31:41.393Z,5.40
2023-12-03T21:34:10.011Z,6.30
2023-12-03T21:36:38.746Z,4.90
2023-12-03T21:39:09.145Z,5.10
2023-12-03T21:41:38.285Z,4.20
2023-12-03T21:44:06.877Z,5.83
2023-12-03T21:46:35.545Z,6.47
2023-12-03T21:49:04.359Z,5.47
2023-12-03T21:51:34.021Z,4.97
2023-12-03T21:54:03.427Z,5.00
2023-12-03T21:56:32.256Z,5.53
2023-12-03T21:59:01.080Z,5.30
2023-12-03T22:01:29.084Z,5.47
2023-12-03T22:03:57.345Z,5.07
2023-12-03T22:06:25.917Z,6.23
2023-12-03T22:08:54.586Z,4.77
2023-12-03T22:11:23.222Z,5.37
2023-12-03T22:13:51.744Z,5.57
2023-12-03T22:16:20.506Z,5.60
2023-12-03T22:18:49.172Z,6.03
2023-12-03T22:21:18.185Z,6.73
2023-12-03T22:23:46.659Z,5.83
2023-12-03T22:26:15.378Z,5.60
2023-12-03T22:28:43.949Z,6.10
2023-12-03T22:31:11.974Z,5.63
2023-12-03T22:33:40.586Z,5.93
2023-12-03T22:36:09.185Z,5.17
2023-12-03T22:38:37.747Z,5.37
2023-12-03T22:41:06.442Z,6.33
2023-12-03T22:43:35.250Z,5.40
2023-12-03T22:46:04.177Z,6.40
2023-12-03T22:48:33.416Z,5.60
2023-12-03T22:51:02.013Z,6.73
2023-12-03T22:53:30.484Z,6.40
2023-12-03T22:55:59.786Z,6.10
2023-12-03T22:58:28.577Z,6.97
2023-12-03T23:00:57.192Z,5.40
2023-12-03T23:03:25.605Z,6.13
2023-12-03T23:05:53.673Z,5.63
2023-12-03T23:08:22.097Z,5.50
2023-12-03T23:10:50.720Z,6.87
2023-12-03T23:13:18.999Z,6.17
2023-12-03T23:15:47.649Z,6.27
2023-12-03T23:18:16.376Z,5.87
2023-12-03T23:20:44.513Z,6.70
2023-12-03T23:23:12.408Z,5.80
2023-12-03T23:25:41.577Z,6.07
2023-12-03T23:28:10.080Z,5.73
2023-12-03T23:30:38.689Z,6.37
2023-12-03T23:33:07.000Z,5.70
2023-12-03T23:35:35.495Z,5.87
2023-12-03T23:38:04.097Z,5.10
2023-12-03T23:40:32.394Z,5.67
2023-12-03T23:43:01.040Z,5.93
2023-12-03T23:45:28.950Z,5.67
2023-12-03T23:47:58.816Z,5.40
2023-12-03T23:50:26.872Z,6.57
2023-12-03T23:52:56.108Z,6.07
2023-12-03T23:55:24.035Z,5.83
2023-12-03T23:57:51.975Z,6.37
